Time;durP1;ratioP1;P1;durP2;ratioP2;P2;SDS_P1;SDS_P2;PMS_P1;PMS_P2;Temp;Humidity;BMP_temperature;BMP_pressure;BME280_temperature;BME280_humidity;BME280_pressure;Samples;Min_cycle;Max_cycle;Signal;HPM_P1;HPM_P2
2022/01/02 00:00:04;;;;;;;20.90;5.55;;;;;;;10.24;100.00;101600.22;5031977;28;20060;-38
2022/01/02 00:02:34;;;;;;;15.25;5.20;;;;;;;10.27;100.00;101590.47;5033290;28;20103;-35
2022/01/02 00:05:04;;;;;;;16.58;5.28;;;;;;;10.27;100.00;101596.06;5032785;28;20480;-37
2022/01/02 00:07:36;;;;;;;21.95;5.82;;;;;;;10.28;100.00;101598.56;5031922;28;20061;-37
2022/01/02 00:10:06;;;;;;;15.60;5.55;;;;;;;10.29;100.00;101593.81;5032703;28;20049;-38
2022/01/02 00:12:35;;;;;;;20.40;5.78;;;;;;;10.30;100.00;101587.13;5031984;28;20392;-38
2022/01/02 00:15:06;;;;;;;18.40;5.22;;;;;;;10.30;100.00;101584.34;5032645;28;20103;-39
2022/01/02 00:17:35;;;;;;;15.75;5.72;;;;;;;10.28;100.00;101567.03;5032557;28;20049;-40
2022/01/02 00:20:10;;;;;;;19.95;5.68;;;;;;;10.28;100.00;101581.81;5031362;28;20038;-41
2022/01/02 00:22:41;;;;;;;17.52;5.35;;;;;;;10.28;100.00;101561.47;5032319;28;20363;-36
2022/01/02 00:25:14;;;;;;;19.23;5.85;;;;;;;10.28;100.00;101553.94;5031599;28;20041;-41
2022/01/02 00:27:42;;;;;;;20.25;6.07;;;;;;;10.27;100.00;101563.41;5031571;28;20038;-36
2022/01/02 00:30:11;;;;;;;19.45;6.57;;;;;;;10.26;100.00;101556.16;5014591;28;20053;-39
2022/01/02 00:32:44;;;;;;;17.30;5.53;;;;;;;10.28;100.00;101544.72;5032071;28;20045;-35
2022/01/02 00:35:12;;;;;;;19.00;6.07;;;;;;;10.28;100.00;101551.13;5031431;28;20076;-34
2022/01/02 00:37:40;;;;;;;18.13;5.78;;;;;;;10.29;100.00;101561.19;5032107;28;20065;-32
2022/01/02 00:40:08;;;;;;;16.77;5.78;;;;;;;10.29;100.00;101560.34;5032162;28;20043;-38
2022/01/02 00:42:39;;;;;;;18.05;6.40;;;;;;;10.29;100.00;101549.19;5030914;28;20041;-37
2022/01/02 00:45:13;;;;;;;17.20;6.13;;;;;;;10.28;100.00;101548.34;5014428;28;20057;-38
2022/01/02 00:47:50;;;;;;;15.13;5.80;;;;;;;10.26;100.00;101547.78;5031178;28;20132;-41
2022/01/02 00:50:21;;;;;;;18.83;5.80;;;;;;;10.26;100.00;101555.31;5032102;28;20054;-35
2022/01/02 00:52:50;;;;;;;16.65;6.00;;;;;;;10.26;100.00;101544.16;5031156;28;20041;-35
2022/01/02 00:55:20;;;;;;;18.98;5.88;;;;;;;10.25;100.00;101543.31;5030854;28;20506;-40
2022/01/02 00:57:57;;;;;;;23.42;6.72;;;;;;;10.27;100.00;101538.31;5013973;28;20054;-37
2022/01/02 01:00:28;;;;;;;19.83;5.97;;;;;;;10.25;100.00;101537.75;5014004;28;20490;-37
2022/01/02 01:03:00;;;;;;;18.67;5.80;;;;;;;10.27;100.00;101548.63;5013252;28;20053;-34
2022/01/02 01:05:31;;;;;;;22.17;7.15;;;;;;;10.26;100.00;101552.53;5032027;28;20123;-37
2022/01/02 01:08:01;;;;;;;18.42;6.07;;;;;;;10.22;100.00;101554.19;5031605;28;20479;-35
2022/01/02 01:10:31;;;;;;;16.13;6.30;;;;;;;10.17;100.00;101535.50;5031106;28;20053;-43
2022/01/02 01:13:01;;;;;;;19.80;6.43;;;;;;;10.14;100.00;101540.81;5031453;28;20045;-35
2022/01/02 01:15:31;;;;;;;21.33;6.38;;;;;;;10.12;100.00;101543.88;5013928;28;20088;-30
2022/01/02 01:18:01;;;;;;;18.10;6.40;;;;;;;10.10;100.00;101539.69;5013122;28;20060;-35
2022/01/02 01:20:32;;;;;;;16.58;5.90;;;;;;;10.09;100.00;101532.44;5013810;28;20316;-37
2022/01/02 01:22:59;;;;;;;17.67;6.20;;;;;;;10.06;100.00;101539.41;5013101;28;20080;-34
2022/01/02 01:25:27;;;;;;;21.13;6.80;;;;;;;10.02;100.00;101519.59;5013579;28;20053;-38
2022/01/02 01:27:56;;;;;;;21.50;7.05;;;;;;;10.00;100.00;101532.16;5013676;28;20053;-35
2022/01/02 01:30:26;;;;;;;21.33;6.22;;;;;;;9.95;100.00;101509.88;5031165;28;20394;-37
2022/01/02 01:32:54;;;;;;;22.90;7.47;;;;;;;9.93;100.00;101512.94;5013688;28;20050;-33
2022/01/02 01:35:24;;;;;;;16.63;6.25;;;;;;;9.90;100.00;101495.91;5031389;28;20054;-38
2022/01/02 01:37:52;;;;;;;23.17;7.88;;;;;;;9.87;100.00;101496.47;5030413;28;20406;-35
2022/01/02 01:40:20;;;;;;;25.30;7.07;;;;;;;9.85;100.00;101481.97;5013505;28;20202;-37
2022/01/02 01:42:57;;;;;;;19.00;6.50;;;;;;;9.83;100.00;101492.56;5031385;28;20069;-36
2022/01/02 01:45:30;;;;;;;25.98;7.85;;;;;;;9.78;100.00;101496.22;5012847;28;20087;-35
2022/01/02 01:48:02;;;;;;;20.63;6.47;;;;;;;9.78;100.00;101493.44;5013354;28;20057;-33
2022/01/02 01:50:39;;;;;;;19.88;6.20;;;;;;;9.78;100.00;101492.59;5013019;28;20046;-30
2022/01/02 01:53:10;;;;;;;18.48;6.88;;;;;;;9.77;100.00;101493.69;5012734;28;20084;-39
2022/01/02 01:55:40;;;;;;;18.08;6.13;;;;;;;9.77;100.00;101482.56;5013194;28;20045;-37
2022/01/02 01:58:10;;;;;;;20.13;7.20;;;;;;;9.80;100.00;101479.19;5012735;28;20052;-39
2022/01/02 02:00:42;;;;;;;24.58;7.05;;;;;;;9.80;100.00;101480.03;5012689;28;20054;-35
2022/01/02 02:03:23;;;;;;;23.63;6.75;;;;;;;9.78;100.00;101473.91;5012914;28;20052;-36
2022/01/02 02:05:53;;;;;;;24.02;6.65;;;;;;;9.80;100.00;101474.44;5034143;28;20103;-38
2022/01/02 02:08:25;;;;;;;20.27;6.95;;;;;;;9.81;100.00;101470.53;5034897;28;20057;-34
2022/01/02 02:10:56;;;;;;;22.23;7.47;;;;;;;9.80;100.00;101474.44;5017151;28;20095;-39
2022/01/02 02:13:25;;;;;;;17.05;6.78;;;;;;;9.77;100.00;101463.88;5033971;28;20103;-34
2022/01/02 02:15:59;;;;;;;22.40;7.50;;;;;;;9.76;100.00;101450.22;5017045;28;20063;-40
2022/01/02 02:18:27;;;;;;;22.83;6.65;;;;;;;9.77;100.00;101438.78;5016828;28;20055;-39
2022/01/02 02:20:57;;;;;;;17.92;6.80;;;;;;;9.80;100.00;101457.72;5033924;28;20516;-42
2022/01/02 02:23:29;;;;;;;23.13;7.22;;;;;;;9.79;100.00;101450.47;5016497;28;20085;-41
2022/01/02 02:25:57;;;;;;;17.88;6.82;;;;;;;9.80;100.00;101441.00;5016946;28;20065;-34
2022/01/02 02:28:27;;;;;;;23.65;7.07;;;;;;;9.79;100.00;101444.91;5016115;28;20050;-32
2022/01/02 02:30:58;;;;;;;;;;;;;;;9.78;100.00;101420.97;5017183;28;20049;-30
2022/01/02 02:33:26;;;;;;;20.95;6.30;;;;;;;9.74;100.00;101419.84;5033928;28;20316;-32
2022/01/02 02:35:54;;;;;;;22.48;7.03;;;;;;;9.77;100.00;101421.25;5016519;28;20059;-40
2022/01/02 02:38:24;;;;;;;20.48;6.88;;;;;;;9.76;100.00;101414.00;5016264;28;20088;-36
2022/01/02 02:40:57;;;;;;;15.73;6.05;;;;;;;9.74;100.00;101405.91;5015773;28;20057;-38
2022/01/02 02:43:31;;;;;;;21.42;6.82;;;;;;;9.73;100.00;101397.81;5016758;28;20107;-37
2022/01/02 02:49:03;;;;;;;18.58;6.28;;;;;;;9.67;100.00;101403.41;5033616;28;20053;-32
2022/01/02 02:51:45;;;;;;;21.08;6.05;;;;;;;9.67;100.00;101396.97;5016838;28;20148;-35
2022/01/02 02:54:22;;;;;;;17.92;6.10;;;;;;;9.63;100.00;101398.66;5015408;28;20489;-33
2022/01/02 02:56:58;;;;;;;19.80;6.07;;;;;;;9.60;100.00;101397.25;5012695;28;20061;-33
2022/01/02 02:59:32;;;;;;;21.15;6.28;;;;;;;9.54;100.00;101397.56;5013044;28;20060;-34
2022/01/02 03:02:01;;;;;;;19.13;5.82;;;;;;;9.49;100.00;101390.03;5013494;28;20053;-36
2022/01/02 03:04:35;;;;;;;21.35;6.10;;;;;;;9.48;100.00;101388.38;5012815;28;20490;-30
2022/01/02 03:07:04;;;;;;;21.52;6.35;;;;;;;9.48;100.00;101373.59;5012794;28;20057;-32
2022/01/02 03:09:39;;;;;;;19.05;5.38;;;;;;;9.51;100.00;101370.25;5011850;28;20246;-37
2022/01/02 03:12:11;;;;;;;23.02;5.80;;;;;;;9.54;100.00;101369.69;5012960;28;20058;-37
2022/01/02 03:14:42;;;;;;;27.67;5.80;;;;;;;9.56;100.00;101364.69;5012683;28;20056;-37
2022/01/02 03:17:10;;;;;;;23.23;5.65;;;;;;;9.57;100.00;101364.41;5010786;28;20050;-33
2022/01/02 03:19:38;;;;;;;18.40;4.78;;;;;;;9.63;100.00;101351.28;5013671;28;20049;-39
2022/01/02 03:22:07;;;;;;;28.92;5.80;;;;;;;9.70;100.00;101356.59;5012016;28;20119;-34
2022/01/02 03:24:37;;;;;;;26.27;5.13;;;;;;;9.75;100.00;101356.59;5011476;28;20061;-34
2022/01/02 03:27:05;;;;;;;23.77;4.95;;;;;;;9.80;100.00;101359.34;5012586;28;20054;-38
2022/01/02 03:29:33;;;;;;;21.90;5.82;;;;;;;9.81;100.00;101366.56;5011211;28;20407;-39
2022/01/02 03:32:01;;;;;;;26.85;5.15;;;;;;;9.81;100.00;101353.47;5012260;28;20050;-36
2022/01/02 03:34:29;;;;;;;25.17;5.82;;;;;;;9.80;100.00;101349.03;5013395;28;20129;-37
2022/01/02 03:36:57;;;;;;;23.42;4.68;;;;;;;9.80;100.00;101348.19;5011120;28;20077;-33
2022/01/02 03:39:25;;;;;;;20.08;4.78;;;;;;;9.79;100.00;101344.56;5012137;28;20065;-33
2022/01/02 03:41:56;;;;;;;19.10;4.53;;;;;;;9.79;100.00;101335.41;5013308;28;20573;-37
2022/01/02 03:44:24;;;;;;;21.88;4.43;;;;;;;9.77;100.00;101341.25;5011502;28;20050;-31
2022/01/02 03:46:52;;;;;;;17.08;5.00;;;;;;;9.72;100.00;101332.88;5011866;28;20062;-39
2022/01/02 03:49:20;;;;;;;23.40;4.75;;;;;;;9.68;100.00;101321.47;5012011;28;20052;-33
2022/01/02 03:51:48;;;;;;;27.58;5.53;;;;;;;9.67;100.00;101314.22;5012536;28;20053;-36
2022/01/02 03:54:16;;;;;;;25.55;4.88;;;;;;;9.65;100.00;101315.63;5011008;28;20065;-37
2022/01/02 03:56:44;;;;;;;20.25;4.47;;;;;;;9.64;100.00;101308.38;5011839;28;20068;-37
2022/01/02 03:59:15;;;;;;;23.67;4.63;;;;;;;9.65;100.00;101298.91;5012214;28;20050;-36
2022/01/02 04:01:43;;;;;;;19.85;4.55;;;;;;;9.67;100.00;101293.88;5011478;28;20050;-39
2022/01/02 04:04:11;;;;;;;21.98;4.55;;;;;;;9.71;100.00;101296.94;5011637;28;20058;-34
2022/01/02 04:06:39;;;;;;;20.60;4.00;;;;;;;9.75;100.00;101289.69;5010764;28;20057;-36
2022/01/02 04:09:06;;;;;;;20.17;4.00;;;;;;;9.77;100.00;101295.81;5013076;28;20045;-36
2022/01/02 04:11:34;;;;;;;18.95;4.32;;;;;;;9.77;100.00;101274.38;5012632;28;20128;-36
2022/01/02 04:14:02;;;;;;;18.98;4.18;;;;;;;9.81;100.00;101278.22;5011383;28;20485;-38
2022/01/02 04:16:31;;;;;;;22.60;4.35;;;;;;;9.82;100.00;101271.53;5012946;28;20161;-33
2022/01/02 04:19:00;;;;;;;19.40;4.35;;;;;;;9.82;100.00;101274.31;5011907;28;20050;-40
2022/01/02 04:21:27;;;;;;;18.42;4.03;;;;;;;9.86;100.00;101261.50;5012665;28;20049;-33
2022/01/02 04:23:55;;;;;;;24.13;4.25;;;;;;;9.88;100.00;101256.47;5012587;28;20052;-40
2022/01/02 04:26:23;;;;;;;19.33;4.20;;;;;;;9.89;100.00;101252.56;5010326;28;20057;-34
2022/01/02 04:28:51;;;;;;;19.33;4.03;;;;;;;9.91;100.00;101255.91;5010361;28;20058;-31
2022/01/02 04:31:19;;;;;;;20.83;4.65;;;;;;;9.95;100.00;101253.38;5012458;28;20149;-37
2022/01/02 04:33:48;;;;;;;24.17;4.80;;;;;;;9.96;100.00;101253.09;5010699;28;20402;-37
2022/01/02 04:36:16;;;;;;;21.23;4.53;;;;;;;9.97;100.00;101245.56;5011101;28;20060;-39
2022/01/02 04:38:45;;;;;;;22.13;4.22;;;;;;;9.95;100.00;101226.34;5012383;28;20101;-32
2022/01/02 04:41:13;;;;;;;20.80;4.50;;;;;;;9.96;100.00;101216.88;5011343;28;20064;-38
2022/01/02 04:43:41;;;;;;;22.60;4.53;;;;;;;9.95;100.00;101187.31;5012402;28;20052;-33
2022/01/02 04:46:11;;;;;;;18.10;4.47;;;;;;;9.93;100.00;101200.69;5011102;28;20053;-35
2022/01/02 04:48:39;;;;;;;26.35;4.30;;;;;;;9.94;100.00;101182.84;5011440;28;20042;-33
2022/01/02 04:51:08;;;;;;;24.48;4.70;;;;;;;9.96;100.00;101182.56;5012166;28;20057;-37
2022/01/02 04:53:45;;;;;;;22.38;3.95;;;;;;;9.96;100.00;101191.78;5010232;28;20583;-33
2022/01/02 04:56:13;;;;;;;21.23;4.20;;;;;;;9.96;100.00;101188.16;5017205;28;20061;-30
2022/01/02 04:58:41;;;;;;;26.38;4.05;;;;;;;9.93;100.00;101178.41;5031836;28;20049;-35
2022/01/02 05:01:11;;;;;;;23.00;4.47;;;;;;;9.92;100.00;101179.53;5031034;28;20060;-36
2022/01/02 05:03:40;;;;;;;20.35;5.20;;;;;;;9.93;100.00;101167.25;5013816;28;20140;-36
2022/01/02 05:06:09;;;;;;;27.95;4.22;;;;;;;9.93;100.00;101150.53;5031905;28;20462;-36
2022/01/02 05:08:39;;;;;;;25.98;4.70;;;;;;;9.92;100.00;101145.22;5011112;28;20099;-33
2022/01/02 05:11:07;;;;;;;26.08;4.38;;;;;;;9.92;100.00;101148.84;5029527;28;20038;-31
2022/01/02 05:13:35;;;;;;;23.27;4.53;;;;;;;9.91;100.00;101138.81;5011670;28;20053;-33
2022/01/02 05:16:03;;;;;;;22.48;4.65;;;;;;;9.92;100.00;101137.72;5028271;28;20050;-35
2022/01/02 05:18:31;;;;;;;26.45;4.97;;;;;;;9.92;100.00;101129.34;5011586;28;20046;-34
2022/01/02 05:21:00;;;;;;;22.23;3.88;;;;;;;9.94;100.00;101129.06;5030125;28;20394;-32
2022/01/02 05:23:30;;;;;;;24.65;3.75;;;;;;;9.94;100.00;101112.34;5011905;28;20049;-31
2022/01/02 05:25:58;;;;;;;23.42;4.45;;;;;;;9.92;100.00;101109.84;5013541;28;20159;-37
2022/01/02 05:28:26;;;;;;;22.92;4.55;;;;;;;9.93;100.00;101116.25;5013511;28;20442;-37
2022/01/02 05:30:54;;;;;;;24.58;4.35;;;;;;;9.93;100.00;101117.06;5012681;28;20046;-36
2022/01/02 05:33:22;;;;;;;22.83;4.40;;;;;;;9.93;100.00;101107.88;5031156;28;20050;-38
2022/01/02 05:35:50;;;;;;;22.58;4.20;;;;;;;9.92;100.00;101092.28;5031384;28;20563;-38
2022/01/02 05:38:19;;;;;;;24.25;4.47;;;;;;;9.91;100.00;101085.88;5030423;28;20086;-37
2022/01/02 05:40:50;;;;;;;21.85;3.95;;;;;;;9.88;100.00;101092.00;5017181;28;20049;-38
2022/01/02 05:43:20;;;;;;;23.88;4.55;;;;;;;9.87;100.00;101075.56;5016810;28;20818;-33
2022/01/02 05:45:48;;;;;;;23.38;4.20;;;;;;;9.85;100.00;101072.25;5035140;28;20411;-34
2022/01/02 05:48:16;;;;;;;24.40;4.63;;;;;;;9.83;100.00;101069.75;5016974;28;20063;-29
2022/01/02 05:50:44;;;;;;;21.23;3.50;;;;;;;9.86;100.00;101060.81;5033355;28;20128;-33
2022/01/02 05:53:12;;;;;;;20.48;4.00;;;;;;;9.88;100.00;101064.13;5016336;28;20049;-33
2022/01/02 05:55:44;;;;;;;24.42;4.65;;;;;;;9.91;100.00;101049.63;5033859;28;20132;-34
2022/01/02 05:58:14;;;;;;;22.65;4.05;;;;;;;10.00;100.00;101053.44;5015454;28;20049;-35
2022/01/02 06:00:42;;;;;;;23.33;4.45;;;;;;;10.09;100.00;101062.03;5032413;28;20406;-38
2022/01/02 06:03:11;;;;;;;25.15;4.88;;;;;;;10.16;100.00;101058.91;5016235;28;20052;-37
2022/01/02 06:05:39;;;;;;;22.45;4.35;;;;;;;10.20;100.00;101040.50;5015348;28;20103;-33
2022/01/02 06:08:08;;;;;;;19.60;3.70;;;;;;;10.23;100.00;101034.31;5031754;28;20258;-35
2022/01/02 06:10:37;;;;;;;17.02;3.90;;;;;;;10.24;100.00;101038.78;5015425;28;20487;-37
2022/01/02 06:13:04;;;;;;;25.83;5.13;;;;;;;10.22;100.00;101027.91;5032946;28;20053;-41
2022/01/02 06:15:34;;;;;;;23.38;4.63;;;;;;;10.23;100.00;101023.16;5015942;28;20099;-33
2022/01/02 06:18:02;;;;;;;21.25;4.53;;;;;;;10.23;100.00;101031.53;5033664;28;20437;-35
2022/01/02 06:20:31;;;;;;;22.33;3.80;;;;;;;10.21;100.00;101023.47;5014956;28;20057;-37
2022/01/02 06:22:59;;;;;;;18.83;4.07;;;;;;;10.19;100.00;101020.13;5015426;28;20041;-40
2022/01/02 06:25:27;;;;;;;24.80;4.22;;;;;;;10.20;100.00;101021.78;5030971;28;20045;-36
2022/01/02 06:27:55;;;;;;;21.40;3.60;;;;;;;10.18;100.00;101012.06;5033344;28;20726;-31
2022/01/02 06:30:23;;;;;;;24.50;4.75;;;;;;;10.16;100.00;101005.94;5015512;28;20103;-33
2022/01/02 06:32:55;;;;;;;20.85;4.20;;;;;;;10.12;100.00;100994.53;5014695;28;20243;-36
2022/01/02 06:35:26;;;;;;;25.55;4.18;;;;;;;10.12;100.00;100990.91;5015567;28;20545;-36
2022/01/02 06:37:54;;;;;;;17.05;4.03;;;;;;;10.11;100.00;100981.72;5015327;28;20107;-37
2022/01/02 06:40:24;;;;;;;23.23;4.18;;;;;;;10.10;100.00;100990.38;5014726;28;20072;-37
2022/01/02 06:42:52;;;;;;;17.40;4.00;;;;;;;10.12;100.00;100994.53;5015215;28;20503;-32
2022/01/02 06:45:20;;;;;;;20.13;4.00;;;;;;;10.11;100.00;100984.50;5015278;28;20103;-32
2022/01/02 06:47:49;;;;;;;22.58;3.90;;;;;;;10.12;100.00;100996.50;5014468;28;20083;-35
2022/01/02 06:50:18;;;;;;;23.15;3.95;;;;;;;10.10;100.00;101013.50;5032498;28;20059;-35
2022/01/02 06:52:46;;;;;;;17.85;3.92;;;;;;;10.14;100.00;101064.78;5015318;28;20057;-38
2022/01/02 06:55:14;;;;;;;25.75;5.40;;;;;;;10.12;100.00;101041.09;5032141;28;20050;-32
2022/01/02 06:57:42;;;;;;;19.63;4.28;;;;;;;10.03;100.00;101027.78;5015090;28;20057;-36
2022/01/02 07:00:10;;;;;;;28.27;4.07;;;;;;;10.05;100.00;101038.63;5032855;28;20402;-35
2022/01/02 07:02:38;;;;;;;21.50;3.63;;;;;;;10.04;100.00;101039.75;5013717;28;20496;-32
2022/01/02 07:05:07;;;;;;;19.23;3.80;;;;;;;9.97;100.00;101040.13;5015174;28;20065;-35
2022/01/02 07:07:42;;;;;;;25.75;4.30;;;;;;;9.94;100.00;101026.75;5014387;28;20058;-34
2022/01/02 07:10:11;;;;;;;27.20;4.82;;;;;;;9.87;100.00;101017.03;5013655;28;20060;-33
2022/01/02 07:12:39;;;;;;;30.33;4.40;;;;;;;9.84;100.00;101010.09;5032351;28;20068;-37
2022/01/02 07:15:08;;;;;;;23.20;4.28;;;;;;;9.84;100.00;101007.31;5031608;28;20072;-34
2022/01/02 07:17:36;;;;;;;30.83;4.60;;;;;;;9.82;100.00;101006.75;5032574;28;20053;-36
2022/01/02 07:20:05;;;;;;;23.48;3.28;;;;;;;9.82;100.00;101003.13;5032411;28;20503;-35
2022/01/02 07:22:33;;;;;;;21.20;3.00;;;;;;;9.85;100.00;100992.25;5031748;28;20046;-34
2022/01/02 07:25:02;;;;;;;23.73;3.55;;;;;;;9.90;100.00;100995.00;5030719;28;20080;-35
2022/01/02 07:27:30;;;;;;;16.15;3.13;;;;;;;9.96;100.00;100998.59;5030714;28;20060;-34
2022/01/02 07:29:58;;;;;;;11.57;3.25;;;;;;;10.05;100.00;100999.59;5030113;28;20514;-39
2022/01/02 07:32:26;;;;;;;16.58;3.50;;;;;;;10.12;100.00;100993.69;5029069;28;20176;-31
2022/01/02 07:34:54;;;;;;;16.85;3.20;;;;;;;10.14;100.00;100992.28;5031510;28;20061;-37
2022/01/02 07:37:22;;;;;;;17.17;3.22;;;;;;;10.12;100.00;100982.53;5031175;28;20049;-31
2022/01/02 07:39:50;;;;;;;18.10;4.45;;;;;;;10.14;100.00;100992.28;5032092;28;20574;-35
2022/01/02 07:42:20;;;;;;;20.75;3.05;;;;;;;10.17;100.00;100996.44;5031476;28;20096;-38
2022/01/02 07:44:55;;;;;;;10.60;2.70;;;;;;;10.21;100.00;100992.78;5029671;28;20057;-34
2022/01/02 07:47:23;;;;;;;17.20;3.22;;;;;;;10.21;100.00;100983.59;5031732;28;20418;-34
2022/01/02 07:49:50;;;;;;;13.00;2.80;;;;;;;10.20;100.00;100981.91;5030749;28;20057;-35
2022/01/02 07:52:18;;;;;;;17.52;3.95;;;;;;;10.16;100.00;100980.84;5031140;28;20049;-35
2022/01/02 07:54:46;;;;;;;15.82;3.47;;;;;;;10.18;100.00;100975.81;5031625;28;20065;-37
2022/01/02 07:57:13;;;;;;;16.05;3.35;;;;;;;10.13;100.00;100982.25;5030605;28;20061;-37
2022/01/02 07:59:42;;;;;;;13.70;3.65;;;;;;;10.15;100.00;100973.59;5031244;28;20084;-30
2022/01/02 08:02:38;;;;;;;12.90;3.50;;;;;;;10.11;100.00;100970.56;5030548;28;20060;-37
2022/01/02 08:05:10;;;;;;;13.60;4.03;;;;;;;10.11;100.00;100964.97;5030320;28;20053;-34
2022/01/02 08:07:38;;;;;;;14.65;3.50;;;;;;;10.11;100.00;100961.38;5013350;28;20424;-35
2022/01/02 08:10:07;;;;;;;13.30;3.58;;;;;;;10.09;100.00;100953.28;5028816;28;20053;-39
2022/01/02 08:12:34;;;;;;;16.55;4.07;;;;;;;10.09;100.00;100949.66;5029600;28;20053;-34
2022/01/02 08:15:05;;;;;;;15.10;4.20;;;;;;;10.08;100.00;100934.06;5028796;28;20060;-38
2022/01/02 08:17:33;;;;;;;15.15;4.28;;;;;;;10.06;100.00;100939.09;5031758;28;20137;-36
2022/01/02 08:20:01;;;;;;;18.80;4.75;;;;;;;10.02;100.00;100936.91;5030385;28;20064;-38
2022/01/02 08:22:29;;;;;;;18.10;4.43;;;;;;;9.97;100.00;100930.56;5031428;28;20152;-34
2022/01/02 08:24:56;;;;;;;15.30;3.88;;;;;;;9.94;100.00;100915.25;5030060;28;20061;-34
2022/01/02 08:27:24;;;;;;;17.23;4.00;;;;;;;9.91;100.00;100918.63;5030913;28;20064;-35
2022/01/02 08:29:52;;;;;;;17.13;4.00;;;;;;;9.89;100.00;100922.81;5030970;28;20053;-37
2022/01/02 08:32:21;;;;;;;16.20;4.32;;;;;;;9.90;100.00;100927.28;5029954;28;20414;-35
2022/01/02 08:34:53;;;;;;;14.68;4.32;;;;;;;9.92;100.00;100908.31;5030851;28;20506;-37
2022/01/02 08:37:20;;;;;;;17.60;4.60;;;;;;;9.94;100.00;100926.41;5030560;28;20053;-34
2022/01/02 08:39:48;;;;;;;14.27;3.85;;;;;;;9.96;100.00;100940.03;5030282;28;20049;-36
2022/01/02 08:42:16;;;;;;;20.88;4.55;;;;;;;9.96;100.00;100937.25;5030708;28;20053;-32
2022/01/02 08:44:44;;;;;;;16.27;4.38;;;;;;;9.95;100.00;100925.28;5030599;28;20044;-39
2022/01/02 08:47:12;;;;;;;15.55;3.85;;;;;;;9.91;100.00;100915.00;5030085;28;20176;-34
2022/01/02 08:49:42;;;;;;;17.23;4.50;;;;;;;9.91;100.00;100912.22;5030337;28;20057;-36
2022/01/02 08:52:09;;;;;;;18.48;4.07;;;;;;;9.90;100.00;100916.13;5030995;28;20080;-35
2022/01/02 08:54:38;;;;;;;17.33;4.63;;;;;;;9.86;100.00;100915.88;5029669;28;20056;-36
2022/01/02 08:57:06;;;;;;;15.27;4.47;;;;;;;9.91;100.00;100912.22;5030341;28;20057;-36
2022/01/02 08:59:33;;;;;;;15.48;5.50;;;;;;;9.91;100.00;100923.34;5030460;28;20045;-34
2022/01/02 09:02:01;;;;;;;12.75;4.28;;;;;;;9.90;100.00;100916.94;5029572;28;20057;-37
2022/01/02 09:04:29;;;;;;;23.30;5.50;;;;;;;9.89;100.00;100903.31;5030521;28;20052;-39
2022/01/02 09:06:58;;;;;;;25.92;5.20;;;;;;;9.89;100.00;100915.28;5030137;28;20571;-37
2022/01/02 09:09:26;;;;;;;18.58;4.70;;;;;;;9.84;100.00;100922.84;5028376;28;20057;-37
2022/01/02 09:11:54;;;;;;;17.10;4.63;;;;;;;9.81;100.00;100912.28;5030160;28;20210;-36
2022/01/02 09:14:22;;;;;;;21.83;5.43;;;;;;;9.76;100.00;100910.41;5028545;28;20045;-39
2022/01/02 09:16:50;;;;;;;23.30;6.07;;;;;;;9.74;100.00;100903.47;5030132;28;20048;-39
2022/01/02 09:19:17;;;;;;;27.80;5.43;;;;;;;9.70;100.00;100900.41;5030098;28;20049;-36
2022/01/02 09:21:45;;;;;;;24.02;5.43;;;;;;;9.67;100.00;100901.84;5029534;28;20041;-39
2022/01/02 09:24:16;;;;;;;26.75;5.55;;;;;;;9.68;100.00;100899.88;5030003;28;20049;-34
2022/01/02 09:26:44;;;;;;;36.53;6.95;;;;;;;9.66;100.00;100900.16;5029909;28;20067;-37
2022/01/02 09:29:12;;;;;;;28.05;6.57;;;;;;;9.68;100.00;100897.09;5029347;28;20049;-39
2022/01/02 09:31:40;;;;;;;23.08;5.55;;;;;;;9.70;100.00;100889.28;5030152;28;20064;-35
2022/01/02 09:34:08;;;;;;;22.88;5.53;;;;;;;9.68;100.00;100885.94;5029985;28;20045;-33
2022/01/02 09:36:37;;;;;;;24.02;5.28;;;;;;;9.72;100.00;100883.41;5028911;28;20050;-32
2022/01/02 09:39:05;;;;;;;28.13;5.95;;;;;;;9.74;100.00;100876.44;5029849;28;20046;-37
2022/01/02 09:41:34;;;;;;;27.17;6.40;;;;;;;9.72;100.00;100880.63;5029943;28;20506;-33
2022/01/02 09:44:03;;;;;;;26.98;5.63;;;;;;;9.70;100.00;100877.28;5029338;28;20049;-35
2022/01/02 09:46:31;;;;;;;27.08;6.22;;;;;;;9.75;100.00;100875.31;5030026;28;20060;-32
2022/01/02 09:48:59;;;;;;;32.42;6.68;;;;;;;9.78;100.00;100869.16;5029520;28;20060;-41
2022/01/02 09:51:27;;;;;;;30.33;6.25;;;;;;;9.89;100.00;100869.84;5028996;28;20129;-39
2022/01/02 09:53:57;;;;;;;32.55;6.30;;;;;;;10.02;100.00;100875.56;5029984;28;20107;-35
2022/01/02 09:56:25;;;;;;;32.60;6.93;;;;;;;10.15;100.00;100876.00;5028966;28;20421;-39
2022/01/02 09:58:54;;;;;;;27.65;5.65;;;;;;;10.33;100.00;100869.69;5029881;28;20098;-37
2022/01/02 10:01:24;;;;;;;32.28;6.93;;;;;;;10.44;100.00;100862.84;5029586;28;20140;-38
2022/01/02 10:03:54;;;;;;;39.75;7.38;;;;;;;10.56;100.00;100871.63;5010994;28;20419;-39
2022/01/02 10:06:38;;;;;;;32.20;6.28;;;;;;;10.64;100.00;100861.75;5029678;28;20100;-34
2022/01/02 10:09:16;;;;;;;36.22;7.28;;;;;;;10.74;100.00;100861.63;5027858;28;20042;-38
2022/01/02 10:11:43;;;;;;;34.80;6.60;;;;;;;10.75;100.00;100865.25;5029071;28;20057;-43
2022/01/02 10:14:13;;;;;;;37.97;7.65;;;;;;;10.75;100.00;100854.91;5029530;28;20049;-36
2022/01/02 10:16:43;;;;;;;30.10;6.47;;;;;;;10.68;100.00;100854.44;5029681;28;20049;-34
2022/01/02 10:19:21;;;;;;;32.72;6.97;;;;;;;10.67;100.00;100858.34;5029144;28;20053;-36
2022/01/02 10:21:55;;;;;;;33.72;6.30;;;;;;;10.62;100.00;100844.47;5029471;28;20513;-36
2022/01/02 10:24:26;;;;;;;27.25;6.05;;;;;;;10.54;100.00;100843.19;5028744;28;20046;-38
2022/01/02 10:27:09;;;;;;;36.88;6.88;;;;;;;10.48;100.00;100838.78;5033042;28;20360;-39
2022/01/02 10:29:44;;;;;;;32.08;7.20;;;;;;;10.39;100.00;100845.34;5033317;28;20063;-37
2022/01/02 10:32:29;;;;;;;38.75;6.88;;;;;;;10.30;100.00;100834.84;5032103;28;20128;-38
2022/01/02 10:35:22;;;;;;;33.20;6.75;;;;;;;10.25;100.00;100845.22;5029759;28;20045;-41
2022/01/02 10:37:51;;;;;;;;;;;;;;;10.16;100.00;100845.03;5018610;28;20053;-39
2022/01/02 10:40:31;;;;;;;39.45;6.38;;;;;;;10.17;100.00;100846.69;5032303;28;19931;-33
2022/01/02 10:43:06;;;;;;;36.85;6.88;;;;;;;10.16;100.00;100845.03;5032991;28;20136;-32
2022/01/02 10:45:38;;;;;;;35.58;6.70;;;;;;;10.21;100.00;100849.72;5032070;28;20053;-34
2022/01/02 10:48:08;;;;;;;;;;;;;;;10.23;100.00;100841.91;5033702;28;20445;-33
2022/01/02 10:50:37;;;;;;;35.92;6.45;;;;;;;10.26;100.00;100850.50;5032056;28;20414;-32
2022/01/02 10:53:13;;;;;;;34.10;6.07;;;;;;;10.34;100.00;100843.44;5032027;28;20049;-37
2022/01/02 10:55:45;;;;;;;33.28;6.45;;;;;;;10.35;100.00;100839.53;5032565;28;20387;-35
2022/01/02 10:58:13;;;;;;;32.70;5.87;;;;;;;10.41;100.00;100843.91;5032115;28;20414;-31
2022/01/02 11:00:44;;;;;;;33.33;5.95;;;;;;;10.43;100.00;100861.16;5031739;28;20057;-38
2022/01/02 11:03:13;;;;;;;38.47;6.18;;;;;;;10.46;100.00;100826.28;5032643;28;20085;-37
2022/01/02 11:05:42;;;;;;;36.65;6.10;;;;;;;10.62;100.00;100850.03;5032051;28;20586;-36
2022/01/02 11:08:12;;;;;;;31.98;6.15;;;;;;;10.74;100.00;100842.06;5028729;28;20063;-31
2022/01/02 11:10:42;;;;;;;30.08;5.30;;;;;;;10.82;100.00;100848.94;5032150;28;20525;-36
2022/01/02 11:13:10;;;;;;;31.23;6.05;;;;;;;10.85;100.00;100843.56;5032184;28;20045;-42
2022/01/02 11:15:38;;;;;;;24.52;4.60;;;;;;;10.98;100.00;100862.38;5031310;28;20049;-38
2022/01/02 11:18:08;;;;;;;35.92;5.68;;;;;;;11.02;100.00;100846.66;5032323;28;20057;-38
2022/01/02 11:20:39;;;;;;;34.75;5.03;;;;;;;11.03;100.00;100867.88;5031720;28;20054;-40
2022/01/02 11:23:14;;;;;;;30.15;4.68;;;;;;;11.01;100.00;100864.56;5032166;28;20407;-38
2022/01/02 11:25:50;;;;;;;29.02;4.43;;;;;;;11.08;100.00;100872.56;5032215;28;20133;-36
2022/01/02 11:28:35;;;;;;;27.58;5.10;;;;;;;11.15;100.00;100875.81;5031326;28;20064;-34